sensor_id;sensor_type;location;lat;lon;timestamp;temperature;humidity
16263;DHT22;8239;48.594;8.598;2023-04-24T00:01:51;8.60;99.90
16263;DHT22;8239;48.594;8.598;2023-04-24T00:04:18;8.70;99.90
16263;DHT22;8239;48.594;8.598;2023-04-24T00:06:45;8.60;99.90
16263;DHT22;8239;48.594;8.598;2023-04-24T00:09:15;8.60;99.90
16263;DHT22;8239;48.594;8.598;2023-04-24T00:11:42;8.70;99.90
16263;DHT22;8239;48.594;8.598;2023-04-24T00:14:09;8.60;99.90
16263;DHT22;8239;48.594;8.598;2023-04-24T00:16:36;8.60;99.90
16263;DHT22;8239;48.594;8.598;2023-04-24T00:19:04;8.60;99.90
16263;DHT22;8239;48.594;8.598;2023-04-24T00:21:32;8.60;99.90
16263;DHT22;8239;48.594;8.598;2023-04-24T00:23:59;8.60;99.90
16263;DHT22;8239;48.594;8.598;2023-04-24T00:26:26;8.60;99.90
16263;DHT22;8239;48.594;8.598;2023-04-24T00:28:53;8.60;99.90
16263;DHT22;8239;48.594;8.598;2023-04-24T00:31:20;8.60;99.90
16263;DHT22;8239;48.594;8.598;2023-04-24T00:33:47;8.60;99.90
16263;DHT22;8239;48.594;8.598;2023-04-24T00:36:15;8.60;99.90
16263;DHT22;8239;48.594;8.598;2023-04-24T00:38:44;8.60;99.90
16263;DHT22;8239;48.594;8.598;2023-04-24T00:41:12;8.50;99.90
16263;DHT22;8239;48.594;8.598;2023-04-24T00:43:39;8.50;99.90
16263;DHT22;8239;48.594;8.598;2023-04-24T00:46:06;8.60;99.90
16263;DHT22;8239;48.594;8.598;2023-04-24T00:48:34;8.50;99.90
16263;DHT22;8239;48.594;8.598;2023-04-24T00:51:01;8.60;99.90
16263;DHT22;8239;48.594;8.598;2023-04-24T00:53:29;8.50;99.90
16263;DHT22;8239;48.594;8.598;2023-04-24T00:55:57;8.50;99.90
16263;DHT22;8239;48.594;8.598;2023-04-24T00:58:24;8.50;99.90
16263;DHT22;8239;48.594;8.598;2023-04-24T01:00:52;8.60;99.90
16263;DHT22;8239;48.594;8.598;2023-04-24T01:03:21;8.50;99.90
16263;DHT22;8239;48.594;8.598;2023-04-24T01:05:49;8.50;99.90
16263;DHT22;8239;48.594;8.598;2023-04-24T01:08:16;8.50;99.90
16263;DHT22;8239;48.594;8.598;2023-04-24T01:10:46;8.50;99.90
16263;DHT22;8239;48.594;8.598;2023-04-24T01:13:14;8.60;99.90
16263;DHT22;8239;48.594;8.598;2023-04-24T01:15:41;8.60;99.90
16263;DHT22;8239;48.594;8.598;2023-04-24T01:18:08;8.60;99.90
16263;DHT22;8239;48.594;8.598;2023-04-24T01:20:37;8.60;99.90
16263;DHT22;8239;48.594;8.598;2023-04-24T01:23:07;8.60;99.90
16263;DHT22;8239;48.594;8.598;2023-04-24T01:25:34;8.50;99.90
16263;DHT22;8239;48.594;8.598;2023-04-24T01:28:02;8.50;99.90
16263;DHT22;8239;48.594;8.598;2023-04-24T01:30:29;8.50;99.90
16263;DHT22;8239;48.594;8.598;2023-04-24T01:32:57;8.40;99.90
16263;DHT22;8239;48.594;8.598;2023-04-24T01:35:25;8.40;99.90
16263;DHT22;8239;48.594;8.598;2023-04-24T01:37:52;8.40;99.90
16263;DHT22;8239;48.594;8.598;2023-04-24T01:40:21;8.40;99.90
16263;DHT22;8239;48.594;8.598;2023-04-24T01:42:48;8.30;99.90
16263;DHT22;8239;48.594;8.598;2023-04-24T01:45:15;8.30;99.90
16263;DHT22;8239;48.594;8.598;2023-04-24T01:47:42;8.30;99.90
16263;DHT22;8239;48.594;8.598;2023-04-24T01:50:09;8.30;99.90
16263;DHT22;8239;48.594;8.598;2023-04-24T01:52:37;8.20;99.90
16263;DHT22;8239;48.594;8.598;2023-04-24T01:55:05;8.20;99.90
16263;DHT22;8239;48.594;8.598;2023-04-24T01:57:34;8.20;99.90
16263;DHT22;8239;48.594;8.598;2023-04-24T02:00:01;8.20;99.90
16263;DHT22;8239;48.594;8.598;2023-04-24T02:02:30;8.20;99.90
16263;DHT22;8239;48.594;8.598;2023-04-24T02:04:57;8.20;99.90
16263;DHT22;8239;48.594;8.598;2023-04-24T02:07:24;8.20;99.90
16263;DHT22;8239;48.594;8.598;2023-04-24T02:09:51;8.20;99.90
16263;DHT22;8239;48.594;8.598;2023-04-24T02:12:18;8.20;99.90
16263;DHT22;8239;48.594;8.598;2023-04-24T02:14:46;8.20;99.90
16263;DHT22;8239;48.594;8.598;2023-04-24T02:17:13;8.20;99.90
16263;DHT22;8239;48.594;8.598;2023-04-24T02:19:41;8.20;99.90
16263;DHT22;8239;48.594;8.598;2023-04-24T02:22:08;8.20;99.90
16263;DHT22;8239;48.594;8.598;2023-04-24T02:24:36;8.20;99.90
16263;DHT22;8239;48.594;8.598;2023-04-24T02:27:03;8.30;99.90
16263;DHT22;8239;48.594;8.598;2023-04-24T02:29:30;8.30;99.90
16263;DHT22;8239;48.594;8.598;2023-04-24T02:31:58;8.30;99.90
16263;DHT22;8239;48.594;8.598;2023-04-24T02:34:25;8.30;99.90
16263;DHT22;8239;48.594;8.598;2023-04-24T02:36:52;8.30;99.90
16263;DHT22;8239;48.594;8.598;2023-04-24T02:39:20;8.30;99.90
16263;DHT22;8239;48.594;8.598;2023-04-24T02:41:47;8.30;99.90
16263;DHT22;8239;48.594;8.598;2023-04-24T02:44:14;8.30;99.90
16263;DHT22;8239;48.594;8.598;2023-04-24T02:46:42;8.30;99.90
16263;DHT22;8239;48.594;8.598;2023-04-24T02:49:11;8.30;99.90
16263;DHT22;8239;48.594;8.598;2023-04-24T02:51:38;8.30;99.90
16263;DHT22;8239;48.594;8.598;2023-04-24T02:54:07;8.30;99.90
16263;DHT22;8239;48.594;8.598;2023-04-24T02:56:34;8.30;99.90
16263;DHT22;8239;48.594;8.598;2023-04-24T02:59:01;8.20;99.90
16263;DHT22;8239;48.594;8.598;2023-04-24T03:01:28;8.20;99.90
16263;DHT22;8239;48.594;8.598;2023-04-24T03:03:55;8.20;99.90
16263;DHT22;8239;48.594;8.598;2023-04-24T03:06:23;8.20;99.90
16263;DHT22;8239;48.594;8.598;2023-04-24T03:08:52;8.10;99.90
16263;DHT22;8239;48.594;8.598;2023-04-24T03:11:19;8.10;99.90
16263;DHT22;8239;48.594;8.598;2023-04-24T03:13:46;8.10;99.90
16263;DHT22;8239;48.594;8.598;2023-04-24T03:16:13;8.10;99.90
16263;DHT22;8239;48.594;8.598;2023-04-24T03:18:40;8.00;99.90
16263;DHT22;8239;48.594;8.598;2023-04-24T03:21:07;8.00;99.90
16263;DHT22;8239;48.594;8.598;2023-04-24T03:23:35;8.00;99.90
16263;DHT22;8239;48.594;8.598;2023-04-24T03:26:02;8.00;99.90
16263;DHT22;8239;48.594;8.598;2023-04-24T03:28:29;8.00;99.90
16263;DHT22;8239;48.594;8.598;2023-04-24T03:30:56;8.00;99.90
16263;DHT22;8239;48.594;8.598;2023-04-24T03:33:23;8.00;99.90
16263;DHT22;8239;48.594;8.598;2023-04-24T03:35:50;8.00;99.90
16263;DHT22;8239;48.594;8.598;2023-04-24T03:38:18;8.00;99.90
16263;DHT22;8239;48.594;8.598;2023-04-24T03:40:46;8.00;99.90
16263;DHT22;8239;48.594;8.598;2023-04-24T03:43:13;8.00;99.90
16263;DHT22;8239;48.594;8.598;2023-04-24T03:45:40;8.00;99.90
16263;DHT22;8239;48.594;8.598;2023-04-24T03:48:07;8.00;99.90
16263;DHT22;8239;48.594;8.598;2023-04-24T03:50:34;8.00;99.90
16263;DHT22;8239;48.594;8.598;2023-04-24T03:53:01;8.00;99.90
16263;DHT22;8239;48.594;8.598;2023-04-24T03:55:28;8.00;99.90
16263;DHT22;8239;48.594;8.598;2023-04-24T03:57:56;8.10;99.90
16263;DHT22;8239;48.594;8.598;2023-04-24T04:00:23;8.10;99.90
16263;DHT22;8239;48.594;8.598;2023-04-24T04:02:51;8.10;99.90
16263;DHT22;8239;48.594;8.598;2023-04-24T04:05:18;8.10;99.90
16263;DHT22;8239;48.594;8.598;2023-04-24T04:07:45;8.00;99.90
16263;DHT22;8239;48.594;8.598;2023-04-24T04:10:12;8.00;99.90
16263;DHT22;8239;48.594;8.598;2023-04-24T04:12:39;8.00;99.90
16263;DHT22;8239;48.594;8.598;2023-04-24T04:15:09;8.00;99.90
16263;DHT22;8239;48.594;8.598;2023-04-24T04:17:36;8.00;99.90
16263;DHT22;8239;48.594;8.598;2023-04-24T04:20:04;7.90;99.90
16263;DHT22;8239;48.594;8.598;2023-04-24T04:22:35;7.90;99.90
16263;DHT22;8239;48.594;8.598;2023-04-24T04:25:02;7.90;99.90
16263;DHT22;8239;48.594;8.598;2023-04-24T04:27:30;7.90;99.90
16263;DHT22;8239;48.594;8.598;2023-04-24T04:29:58;7.80;99.90
16263;DHT22;8239;48.594;8.598;2023-04-24T04:32:28;7.80;99.90
16263;DHT22;8239;48.594;8.598;2023-04-24T04:34:55;7.70;99.90
16263;DHT22;8239;48.594;8.598;2023-04-24T04:37:22;7.60;99.90
16263;DHT22;8239;48.594;8.598;2023-04-24T04:39:49;7.50;99.90
16263;DHT22;8239;48.594;8.598;2023-04-24T04:42:16;7.50;99.90
16263;DHT22;8239;48.594;8.598;2023-04-24T04:44:44;7.40;99.90
16263;DHT22;8239;48.594;8.598;2023-04-24T04:47:11;7.30;99.90
16263;DHT22;8239;48.594;8.598;2023-04-24T04:49:40;7.20;99.90
16263;DHT22;8239;48.594;8.598;2023-04-24T04:52:08;7.10;99.90
16263;DHT22;8239;48.594;8.598;2023-04-24T04:54:35;7.00;99.90
16263;DHT22;8239;48.594;8.598;2023-04-24T04:57:02;6.90;99.90
16263;DHT22;8239;48.594;8.598;2023-04-24T04:59:30;6.90;99.90
16263;DHT22;8239;48.594;8.598;2023-04-24T05:01:57;6.80;99.90
16263;DHT22;8239;48.594;8.598;2023-04-24T05:04:24;6.80;99.90
16263;DHT22;8239;48.594;8.598;2023-04-24T05:06:53;6.80;99.90
16263;DHT22;8239;48.594;8.598;2023-04-24T05:09:20;6.80;99.90
16263;DHT22;8239;48.594;8.598;2023-04-24T05:11:47;6.80;99.90
16263;DHT22;8239;48.594;8.598;2023-04-24T05:14:14;6.80;99.90
16263;DHT22;8239;48.594;8.598;2023-04-24T05:16:43;6.90;99.90
16263;DHT22;8239;48.594;8.598;2023-04-24T05:19:10;6.90;99.90
16263;DHT22;8239;48.594;8.598;2023-04-24T05:21:39;7.00;99.90
16263;DHT22;8239;48.594;8.598;2023-04-24T05:24:07;7.10;99.90
16263;DHT22;8239;48.594;8.598;2023-04-24T05:26:34;7.10;99.90
16263;DHT22;8239;48.594;8.598;2023-04-24T05:29:02;7.20;99.90
16263;DHT22;8239;48.594;8.598;2023-04-24T05:31:29;7.30;99.90
16263;DHT22;8239;48.594;8.598;2023-04-24T05:33:56;7.30;99.90
16263;DHT22;8239;48.594;8.598;2023-04-24T05:36:23;7.50;99.90
16263;DHT22;8239;48.594;8.598;2023-04-24T05:38:50;7.60;99.90
16263;DHT22;8239;48.594;8.598;2023-04-24T05:41:19;7.80;99.90
16263;DHT22;8239;48.594;8.598;2023-04-24T05:43:46;8.10;99.90
16263;DHT22;8239;48.594;8.598;2023-04-24T05:46:13;8.40;99.90
16263;DHT22;8239;48.594;8.598;2023-04-24T05:48:40;8.70;99.90
16263;DHT22;8239;48.594;8.598;2023-04-24T05:51:09;9.00;99.90
16263;DHT22;8239;48.594;8.598;2023-04-24T05:53:36;9.30;99.90
16263;DHT22;8239;48.594;8.598;2023-04-24T05:56:03;9.60;99.90
16263;DHT22;8239;48.594;8.598;2023-04-24T05:58:32;9.90;99.90
16263;DHT22;8239;48.594;8.598;2023-04-24T06:00:59;10.10;99.90
16263;DHT22;8239;48.594;8.598;2023-04-24T06:03:27;10.30;99.90
16263;DHT22;8239;48.594;8.598;2023-04-24T06:05:54;10.50;99.90
16263;DHT22;8239;48.594;8.598;2023-04-24T06:08:21;10.70;99.90
16263;DHT22;8239;48.594;8.598;2023-04-24T06:10:48;10.70;99.90
16263;DHT22;8239;48.594;8.598;2023-04-24T06:13:15;10.60;99.90
16263;DHT22;8239;48.594;8.598;2023-04-24T06:15:44;10.50;99.90
16263;DHT22;8239;48.594;8.598;2023-04-24T06:18:11;10.40;99.90
16263;DHT22;8239;48.594;8.598;2023-04-24T06:20:38;10.40;99.90
16263;DHT22;8239;48.594;8.598;2023-04-24T06:23:05;10.40;99.90
16263;DHT22;8239;48.594;8.598;2023-04-24T06:25:32;10.30;99.90
16263;DHT22;8239;48.594;8.598;2023-04-24T06:27:59;10.20;99.90
16263;DHT22;8239;48.594;8.598;2023-04-24T06:30:27;10.00;99.90
16263;DHT22;8239;48.594;8.598;2023-04-24T06:32:55;9.70;99.90
16263;DHT22;8239;48.594;8.598;2023-04-24T06:35:22;9.40;99.90
16263;DHT22;8239;48.594;8.598;2023-04-24T06:37:50;9.10;99.90
16263;DHT22;8239;48.594;8.598;2023-04-24T06:40:17;8.80;99.90
16263;DHT22;8239;48.594;8.598;2023-04-24T06:42:45;8.70;99.90
16263;DHT22;8239;48.594;8.598;2023-04-24T06:45:12;8.60;99.90
16263;DHT22;8239;48.594;8.598;2023-04-24T06:47:39;8.50;99.90
16263;DHT22;8239;48.594;8.598;2023-04-24T06:50:08;8.40;99.90
16263;DHT22;8239;48.594;8.598;2023-04-24T06:52:35;8.40;99.90
16263;DHT22;8239;48.594;8.598;2023-04-24T06:55:03;8.50;99.90
16263;DHT22;8239;48.594;8.598;2023-04-24T06:57:30;8.50;99.90
16263;DHT22;8239;48.594;8.598;2023-04-24T06:59:57;8.70;99.90
16263;DHT22;8239;48.594;8.598;2023-04-24T07:02:24;8.80;99.90
16263;DHT22;8239;48.594;8.598;2023-04-24T07:04:52;9.00;99.90
16263;DHT22;8239;48.594;8.598;2023-04-24T07:07:20;9.20;99.90
16263;DHT22;8239;48.594;8.598;2023-04-24T07:09:49;9.30;99.90
16263;DHT22;8239;48.594;8.598;2023-04-24T07:12:16;9.40;99.90
16263;DHT22;8239;48.594;8.598;2023-04-24T07:14:46;9.60;99.90
16263;DHT22;8239;48.594;8.598;2023-04-24T07:17:13;9.70;99.90
16263;DHT22;8239;48.594;8.598;2023-04-24T07:19:40;9.80;99.90
16263;DHT22;8239;48.594;8.598;2023-04-24T07:22:07;9.90;99.90
16263;DHT22;8239;48.594;8.598;2023-04-24T07:24:35;10.00;99.90
16263;DHT22;8239;48.594;8.598;2023-04-24T07:27:03;10.10;99.90
16263;DHT22;8239;48.594;8.598;2023-04-24T07:29:31;10.30;99.90
16263;DHT22;8239;48.594;8.598;2023-04-24T07:31:57;10.40;99.90
16263;DHT22;8239;48.594;8.598;2023-04-24T07:34:25;10.60;99.90
16263;DHT22;8239;48.594;8.598;2023-04-24T07:36:52;11.10;99.90
16263;DHT22;8239;48.594;8.598;2023-04-24T07:39:19;11.30;99.90
16263;DHT22;8239;48.594;8.598;2023-04-24T07:41:47;11.80;99.90
16263;DHT22;8239;48.594;8.598;2023-04-24T07:44:14;12.40;99.90
16263;DHT22;8239;48.594;8.598;2023-04-24T07:46:41;12.90;96.70
16263;DHT22;8239;48.594;8.598;2023-04-24T07:49:08;13.10;94.90
16263;DHT22;8239;48.594;8.598;2023-04-24T07:51:35;13.00;94.50
16263;DHT22;8239;48.594;8.598;2023-04-24T07:54:04;12.80;93.00
16263;DHT22;8239;48.594;8.598;2023-04-24T07:56:32;12.60;93.10
16263;DHT22;8239;48.594;8.598;2023-04-24T07:59:00;12.30;92.30
16263;DHT22;8239;48.594;8.598;2023-04-24T08:01:27;11.90;93.40
16263;DHT22;8239;48.594;8.598;2023-04-24T08:03:54;11.70;94.70
16263;DHT22;8239;48.594;8.598;2023-04-24T08:06:22;11.40;93.70
16263;DHT22;8239;48.594;8.598;2023-04-24T08:08:49;11.10;93.90
16263;DHT22;8239;48.594;8.598;2023-04-24T08:11:17;10.80;94.80
16263;DHT22;8239;48.594;8.598;2023-04-24T08:13:44;10.50;94.20
16263;DHT22;8239;48.594;8.598;2023-04-24T08:16:12;10.20;95.50
16263;DHT22;8239;48.594;8.598;2023-04-24T08:18:40;9.90;96.90
16263;DHT22;8239;48.594;8.598;2023-04-24T08:21:07;9.60;98.00
16263;DHT22;8239;48.594;8.598;2023-04-24T08:23:34;9.40;98.60
16263;DHT22;8239;48.594;8.598;2023-04-24T08:26:01;9.40;99.30
16263;DHT22;8239;48.594;8.598;2023-04-24T08:28:28;9.50;99.30
16263;DHT22;8239;48.594;8.598;2023-04-24T08:30:55;9.50;99.40
16263;DHT22;8239;48.594;8.598;2023-04-24T08:33:24;9.50;98.70
16263;DHT22;8239;48.594;8.598;2023-04-24T08:35:52;9.40;97.60
16263;DHT22;8239;48.594;8.598;2023-04-24T08:38:19;9.40;98.20
16263;DHT22;8239;48.594;8.598;2023-04-24T08:40:47;9.40;98.10
16263;DHT22;8239;48.594;8.598;2023-04-24T08:43:15;9.70;98.40
16263;DHT22;8239;48.594;8.598;2023-04-24T08:45:43;10.80;99.20
16263;DHT22;8239;48.594;8.598;2023-04-24T08:48:10;12.40;96.20
16263;DHT22;8239;48.594;8.598;2023-04-24T08:50:39;13.90;90.80
16263;DHT22;8239;48.594;8.598;2023-04-24T08:53:08;15.30;84.40
16263;DHT22;8239;48.594;8.598;2023-04-24T08:55:35;16.10;73.50
16263;DHT22;8239;48.594;8.598;2023-04-24T08:58:03;16.80;69.80
16263;DHT22;8239;48.594;8.598;2023-04-24T09:00:31;17.50;64.10
16263;DHT22;8239;48.594;8.598;2023-04-24T09:03:00;18.10;61.40
16263;DHT22;8239;48.594;8.598;2023-04-24T09:05:28;19.10;60.60
16263;DHT22;8239;48.594;8.598;2023-04-24T09:07:57;20.20;59.40
16263;DHT22;8239;48.594;8.598;2023-04-24T09:10:25;21.20;54.70
16263;DHT22;8239;48.594;8.598;2023-04-24T09:12:54;21.80;48.00
16263;DHT22;8239;48.594;8.598;2023-04-24T09:15:22;22.10;50.10
16263;DHT22;8239;48.594;8.598;2023-04-24T09:17:49;21.90;49.40
16263;DHT22;8239;48.594;8.598;2023-04-24T09:20:17;20.80;45.40
16263;DHT22;8239;48.594;8.598;2023-04-24T09:22:45;19.10;45.90
16263;DHT22;8239;48.594;8.598;2023-04-24T09:25:13;17.50;49.30
16263;DHT22;8239;48.594;8.598;2023-04-24T09:27:45;16.20;50.90
16263;DHT22;8239;48.594;8.598;2023-04-24T09:30:13;15.10;53.90
16263;DHT22;8239;48.594;8.598;2023-04-24T09:32:42;14.00;54.40
16263;DHT22;8239;48.594;8.598;2023-04-24T09:35:11;13.10;57.70
16263;DHT22;8239;48.594;8.598;2023-04-24T09:37:46;12.50;60.00
16263;DHT22;8239;48.594;8.598;2023-04-24T09:40:17;12.20;62.20
16263;DHT22;8239;48.594;8.598;2023-04-24T09:42:52;11.80;63.10
16263;DHT22;8239;48.594;8.598;2023-04-24T09:45:20;11.40;66.00
16263;DHT22;8239;48.594;8.598;2023-04-24T09:47:52;11.30;68.00
16263;DHT22;8239;48.594;8.598;2023-04-24T09:50:21;11.00;67.30
16263;DHT22;8239;48.594;8.598;2023-04-24T09:52:58;10.80;70.60
16263;DHT22;8239;48.594;8.598;2023-04-24T09:55:26;10.90;89.90
16263;DHT22;8239;48.594;8.598;2023-04-24T09:57:55;11.50;89.50
16263;DHT22;8239;48.594;8.598;2023-04-24T10:00:23;12.70;81.20
16263;DHT22;8239;48.594;8.598;2023-04-24T10:02:54;13.90;70.60
16263;DHT22;8239;48.594;8.598;2023-04-24T10:05:24;14.90;65.00
16263;DHT22;8239;48.594;8.598;2023-04-24T10:07:52;14.90;61.70
16263;DHT22;8239;48.594;8.598;2023-04-24T10:10:22;14.80;62.90
16263;DHT22;8239;48.594;8.598;2023-04-24T10:12:51;15.00;64.40
16263;DHT22;8239;48.594;8.598;2023-04-24T10:15:20;15.10;60.40
16263;DHT22;8239;48.594;8.598;2023-04-24T10:17:48;14.60;61.70
16263;DHT22;8239;48.594;8.598;2023-04-24T10:20:19;13.90;63.10
16263;DHT22;8239;48.594;8.598;2023-04-24T10:22:48;14.00;67.20
16263;DHT22;8239;48.594;8.598;2023-04-24T10:25:18;14.60;67.90
16263;DHT22;8239;48.594;8.598;2023-04-24T10:27:46;15.30;69.00
16263;DHT22;8239;48.594;8.598;2023-04-24T10:30:15;16.40;67.90
16263;DHT22;8239;48.594;8.598;2023-04-24T10:32:42;17.60;61.90
16263;DHT22;8239;48.594;8.598;2023-04-24T10:35:10;18.20;56.70
16263;DHT22;8239;48.594;8.598;2023-04-24T10:37:41;18.10;55.00
16263;DHT22;8239;48.594;8.598;2023-04-24T10:40:10;17.50;55.30
16263;DHT22;8239;48.594;8.598;2023-04-24T10:42:40;16.70;56.70
16263;DHT22;8239;48.594;8.598;2023-04-24T10:45:17;15.90;58.20
16263;DHT22;8239;48.594;8.598;2023-04-24T10:47:57;15.00;58.90
16263;DHT22;8239;48.594;8.598;2023-04-24T10:50:26;14.20;60.90
16263;DHT22;8239;48.594;8.598;2023-04-24T10:52:53;13.40;63.10
16263;DHT22;8239;48.594;8.598;2023-04-24T10:55:43;12.80;66.60
16263;DHT22;8239;48.594;8.598;2023-04-24T10:58:11;12.30;69.70
16263;DHT22;8239;48.594;8.598;2023-04-24T11:00:40;12.10;71.20
16263;DHT22;8239;48.594;8.598;2023-04-24T11:03:23;11.90;72.90
16263;DHT22;8239;48.594;8.598;2023-04-24T11:05:57;11.90;73.60
16263;DHT22;8239;48.594;8.598;2023-04-24T11:08:29;12.40;74.60
16263;DHT22;8239;48.594;8.598;2023-04-24T11:11:03;13.20;71.20
16263;DHT22;8239;48.594;8.598;2023-04-24T11:16:44;14.50;65.40
16263;DHT22;8239;48.594;8.598;2023-04-24T11:19:21;15.10;66.00
16263;DHT22;8239;48.594;8.598;2023-04-24T11:21:55;15.60;63.00
16263;DHT22;8239;48.594;8.598;2023-04-24T11:24:30;15.80;59.90
16263;DHT22;8239;48.594;8.598;2023-04-24T11:27:01;15.70;59.10
16263;DHT22;8239;48.594;8.598;2023-04-24T11:29:43;15.20;59.50
16263;DHT22;8239;48.594;8.598;2023-04-24T11:32:23;15.00;60.90
16263;DHT22;8239;48.594;8.598;2023-04-24T11:34:52;14.60;60.80
16263;DHT22;8239;48.594;8.598;2023-04-24T11:37:22;14.00;61.20
16263;DHT22;8239;48.594;8.598;2023-04-24T11:39:51;13.30;63.00
16263;DHT22;8239;48.594;8.598;2023-04-24T11:42:18;12.80;65.60
16263;DHT22;8239;48.594;8.598;2023-04-24T11:44:46;12.50;66.80
16263;DHT22;8239;48.594;8.598;2023-04-24T11:47:14;12.20;68.70
16263;DHT22;8239;48.594;8.598;2023-04-24T11:49:42;11.90;69.40
16263;DHT22;8239;48.594;8.598;2023-04-24T11:52:10;11.60;70.70
16263;DHT22;8239;48.594;8.598;2023-04-24T11:54:37;11.40;72.60
16263;DHT22;8239;48.594;8.598;2023-04-24T11:57:06;11.10;75.10
16263;DHT22;8239;48.594;8.598;2023-04-24T11:59:36;10.80;77.30
16263;DHT22;8239;48.594;8.598;2023-04-24T12:02:04;10.50;78.40
16263;DHT22;8239;48.594;8.598;2023-04-24T12:04:39;10.20;82.10
16263;DHT22;8239;48.594;8.598;2023-04-24T12:07:08;10.10;84.00
16263;DHT22;8239;48.594;8.598;2023-04-24T12:09:42;10.10;84.40
16263;DHT22;8239;48.594;8.598;2023-04-24T12:12:10;10.50;87.60
16263;DHT22;8239;48.594;8.598;2023-04-24T12:14:45;11.20;87.00
16263;DHT22;8239;48.594;8.598;2023-04-24T12:17:12;11.90;84.40
16263;DHT22;8239;48.594;8.598;2023-04-24T12:19:45;12.40;84.50
16263;DHT22;8239;48.594;8.598;2023-04-24T12:22:14;12.80;82.20
16263;DHT22;8239;48.594;8.598;2023-04-24T12:24:58;13.20;80.20
16263;DHT22;8239;48.594;8.598;2023-04-24T12:27:26;13.50;75.60
16263;DHT22;8239;48.594;8.598;2023-04-24T12:29:55;13.50;73.90
16263;DHT22;8239;48.594;8.598;2023-04-24T12:32:22;13.30;73.30
16263;DHT22;8239;48.594;8.598;2023-04-24T12:34:50;13.00;71.70
16263;DHT22;8239;48.594;8.598;2023-04-24T12:37:19;12.60;72.60
16263;DHT22;8239;48.594;8.598;2023-04-24T12:40:00;12.20;72.90
16263;DHT22;8239;48.594;8.598;2023-04-24T12:42:27;11.90;73.70
16263;DHT22;8239;48.594;8.598;2023-04-24T12:45:00;11.60;74.20
16263;DHT22;8239;48.594;8.598;2023-04-24T12:47:29;11.60;74.70
16263;DHT22;8239;48.594;8.598;2023-04-24T12:49:56;11.80;74.70
16263;DHT22;8239;48.594;8.598;2023-04-24T12:52:25;12.10;74.80
16263;DHT22;8239;48.594;8.598;2023-04-24T12:54:53;12.60;74.10
16263;DHT22;8239;48.594;8.598;2023-04-24T12:57:21;13.20;71.70
16263;DHT22;8239;48.594;8.598;2023-04-24T12:59:48;14.20;72.80
16263;DHT22;8239;48.594;8.598;2023-04-24T13:02:16;15.40;67.80
16263;DHT22;8239;48.594;8.598;2023-04-24T13:04:44;16.00;65.90
16263;DHT22;8239;48.594;8.598;2023-04-24T13:07:13;16.30;61.80
16263;DHT22;8239;48.594;8.598;2023-04-24T13:09:42;16.00;58.80
16263;DHT22;8239;48.594;8.598;2023-04-24T13:12:10;15.30;58.40
16263;DHT22;8239;48.594;8.598;2023-04-24T13:14:37;14.60;60.10
16263;DHT22;8239;48.594;8.598;2023-04-24T13:17:05;13.90;61.70
16263;DHT22;8239;48.594;8.598;2023-04-24T13:19:36;13.30;63.50
16263;DHT22;8239;48.594;8.598;2023-04-24T13:22:03;12.80;65.90
16263;DHT22;8239;48.594;8.598;2023-04-24T13:24:31;12.50;67.30
16263;DHT22;8239;48.594;8.598;2023-04-24T13:27:00;12.30;67.80
16263;DHT22;8239;48.594;8.598;2023-04-24T13:29:28;12.10;69.10
16263;DHT22;8239;48.594;8.598;2023-04-24T13:31:55;12.20;70.70
16263;DHT22;8239;48.594;8.598;2023-04-24T13:34:22;12.30;69.00
16263;DHT22;8239;48.594;8.598;2023-04-24T13:36:49;12.30;69.30
16263;DHT22;8239;48.594;8.598;2023-04-24T13:39:17;12.20;69.90
16263;DHT22;8239;48.594;8.598;2023-04-24T13:41:44;12.10;70.60
16263;DHT22;8239;48.594;8.598;2023-04-24T13:44:14;12.00;70.90
16263;DHT22;8239;48.594;8.598;2023-04-24T13:46:42;11.80;70.70
16263;DHT22;8239;48.594;8.598;2023-04-24T13:49:10;11.60;71.10
16263;DHT22;8239;48.594;8.598;2023-04-24T13:51:38;11.30;71.00
16263;DHT22;8239;48.594;8.598;2023-04-24T13:54:05;11.20;72.70
16263;DHT22;8239;48.594;8.598;2023-04-24T13:56:32;11.10;72.90
16263;DHT22;8239;48.594;8.598;2023-04-24T13:59:00;11.40;75.70
16263;DHT22;8239;48.594;8.598;2023-04-24T14:01:29;12.00;74.30
16263;DHT22;8239;48.594;8.598;2023-04-24T14:03:58;12.90;74.90
16263;DHT22;8239;48.594;8.598;2023-04-24T14:06:26;13.60;71.30
16263;DHT22;8239;48.594;8.598;2023-04-24T14:08:53;13.80;66.70
16263;DHT22;8239;48.594;8.598;2023-04-24T14:11:20;13.50;65.30
16263;DHT22;8239;48.594;8.598;2023-04-24T14:13:47;13.20;66.40
16263;DHT22;8239;48.594;8.598;2023-04-24T14:16:15;13.00;68.40
16263;DHT22;8239;48.594;8.598;2023-04-24T14:18:43;13.10;70.60
16263;DHT22;8239;48.594;8.598;2023-04-24T14:21:10;13.20;70.80
16263;DHT22;8239;48.594;8.598;2023-04-24T14:23:37;13.30;69.60
16263;DHT22;8239;48.594;8.598;2023-04-24T14:26:04;13.30;70.70
16263;DHT22;8239;48.594;8.598;2023-04-24T14:28:32;13.60;70.90
16263;DHT22;8239;48.594;8.598;2023-04-24T14:30:59;14.70;71.80
16263;DHT22;8239;48.594;8.598;2023-04-24T14:33:29;16.00;64.50
16263;DHT22;8239;48.594;8.598;2023-04-24T14:35:57;16.50;61.50
16263;DHT22;8239;48.594;8.598;2023-04-24T14:38:24;16.50;59.00
16263;DHT22;8239;48.594;8.598;2023-04-24T14:40:52;16.40;60.20
16263;DHT22;8239;48.594;8.598;2023-04-24T14:43:19;16.40;60.20
16263;DHT22;8239;48.594;8.598;2023-04-24T14:45:46;16.70;58.90
16263;DHT22;8239;48.594;8.598;2023-04-24T14:48:13;16.40;57.50
16263;DHT22;8239;48.594;8.598;2023-04-24T14:50:42;16.10;57.60
16263;DHT22;8239;48.594;8.598;2023-04-24T14:53:10;15.80;58.80
16263;DHT22;8239;48.594;8.598;2023-04-24T14:55:37;16.10;60.30
16263;DHT22;8239;48.594;8.598;2023-04-24T14:58:04;16.30;60.10
16263;DHT22;8239;48.594;8.598;2023-04-24T15:00:31;15.90;58.20
16263;DHT22;8239;48.594;8.598;2023-04-24T15:02:58;15.60;59.90
16263;DHT22;8239;48.594;8.598;2023-04-24T15:05:25;15.80;60.50
16263;DHT22;8239;48.594;8.598;2023-04-24T15:07:52;16.30;61.40
16263;DHT22;8239;48.594;8.598;2023-04-24T15:10:21;17.00;59.50
16263;DHT22;8239;48.594;8.598;2023-04-24T15:12:49;17.60;57.60
16263;DHT22;8239;48.594;8.598;2023-04-24T15:15:16;17.60;53.80
16263;DHT22;8239;48.594;8.598;2023-04-24T15:17:43;17.60;55.00
16263;DHT22;8239;48.594;8.598;2023-04-24T15:20:10;17.50;54.90
16263;DHT22;8239;48.594;8.598;2023-04-24T15:22:37;17.40;55.00
16263;DHT22;8239;48.594;8.598;2023-04-24T15:25:05;17.10;54.90
16263;DHT22;8239;48.594;8.598;2023-04-24T15:27:44;16.60;55.50
16263;DHT22;8239;48.594;8.598;2023-04-24T15:30:12;16.10;56.60
16263;DHT22;8239;48.594;8.598;2023-04-24T15:32:39;16.00;57.70
16263;DHT22;8239;48.594;8.598;2023-04-24T15:35:07;16.00;57.30
16263;DHT22;8239;48.594;8.598;2023-04-24T15:37:34;15.90;57.70
16263;DHT22;8239;48.594;8.598;2023-04-24T15:40:01;15.50;56.30
16263;DHT22;8239;48.594;8.598;2023-04-24T15:42:48;15.10;57.10
16263;DHT22;8239;48.594;8.598;2023-04-24T15:45:15;14.40;57.80
16263;DHT22;8239;48.594;8.598;2023-04-24T15:47:42;13.80;59.10
16263;DHT22;8239;48.594;8.598;2023-04-24T15:50:10;13.20;61.20
16263;DHT22;8239;48.594;8.598;2023-04-24T15:52:37;12.70;61.90
16263;DHT22;8239;48.594;8.598;2023-04-24T15:55:05;12.30;63.00
16263;DHT22;8239;48.594;8.598;2023-04-24T15:57:32;12.00;64.60
16263;DHT22;8239;48.594;8.598;2023-04-24T16:00:01;11.70;65.80
16263;DHT22;8239;48.594;8.598;2023-04-24T16:02:28;11.40;66.50